sensor_id;sensor_type;location;lat;lon;timestamp;P1;durP1;ratioP1;P2;durP2;ratioP2
38783;SDS011;24531;45.502;12.238;2023-12-14T00:01:40;17.98;;;13.30;;
38783;SDS011;24531;45.502;12.238;2023-12-14T00:04:06;16.92;;;11.52;;
38783;SDS011;24531;45.502;12.238;2023-12-14T00:06:32;18.73;;;14.40;;
38783;SDS011;24531;45.502;12.238;2023-12-14T00:08:58;25.33;;;17.35;;
38783;SDS011;24531;45.502;12.238;2023-12-14T00:11:23;25.83;;;17.90;;
38783;SDS011;24531;45.502;12.238;2023-12-14T00:13:49;25.85;;;17.08;;
38783;SDS011;24531;45.502;12.238;2023-12-14T00:16:14;27.15;;;18.90;;
38783;SDS011;24531;45.502;12.238;2023-12-14T00:18:40;37.53;;;24.83;;
38783;SDS011;24531;45.502;12.238;2023-12-14T00:21:06;22.60;;;15.75;;
38783;SDS011;24531;45.502;12.238;2023-12-14T00:23:33;18.50;;;13.45;;
38783;SDS011;24531;45.502;12.238;2023-12-14T00:25:59;20.42;;;14.23;;
38783;SDS011;24531;45.502;12.238;2023-12-14T00:28:24;18.55;;;13.40;;
38783;SDS011;24531;45.502;12.238;2023-12-14T00:30:50;18.75;;;13.45;;
38783;SDS011;24531;45.502;12.238;2023-12-14T00:33:16;18.13;;;13.68;;
38783;SDS011;24531;45.502;12.238;2023-12-14T00:35:41;17.35;;;12.77;;
38783;SDS011;24531;45.502;12.238;2023-12-14T00:38:07;15.75;;;12.05;;
38783;SDS011;24531;45.502;12.238;2023-12-14T00:40:32;14.93;;;12.32;;
38783;SDS011;24531;45.502;12.238;2023-12-14T00:42:58;15.65;;;12.00;;
38783;SDS011;24531;45.502;12.238;2023-12-14T00:45:23;18.25;;;12.85;;
38783;SDS011;24531;45.502;12.238;2023-12-14T00:47:49;15.10;;;12.20;;
38783;SDS011;24531;45.502;12.238;2023-12-14T00:50:15;12.27;;;10.77;;
38783;SDS011;24531;45.502;12.238;2023-12-14T00:52:40;14.82;;;10.68;;
38783;SDS011;24531;45.502;12.238;2023-12-14T00:55:06;13.65;;;11.18;;
38783;SDS011;24531;45.502;12.238;2023-12-14T00:57:31;17.27;;;12.73;;
38783;SDS011;24531;45.502;12.238;2023-12-14T00:59:57;14.65;;;12.38;;
38783;SDS011;24531;45.502;12.238;2023-12-14T01:02:23;14.85;;;11.63;;
38783;SDS011;24531;45.502;12.238;2023-12-14T01:04:48;14.82;;;12.10;;
38783;SDS011;24531;45.502;12.238;2023-12-14T01:07:14;19.38;;;13.02;;
38783;SDS011;24531;45.502;12.238;2023-12-14T01:09:39;14.57;;;11.32;;
38783;SDS011;24531;45.502;12.238;2023-12-14T01:12:05;20.42;;;12.93;;
38783;SDS011;24531;45.502;12.238;2023-12-14T01:14:31;16.15;;;12.20;;
38783;SDS011;24531;45.502;12.238;2023-12-14T01:16:56;17.00;;;13.40;;
38783;SDS011;24531;45.502;12.238;2023-12-14T01:19:22;16.83;;;13.65;;
38783;SDS011;24531;45.502;12.238;2023-12-14T01:21:47;17.30;;;14.10;;
38783;SDS011;24531;45.502;12.238;2023-12-14T01:24:13;15.00;;;12.73;;
38783;SDS011;24531;45.502;12.238;2023-12-14T01:26:39;17.92;;;13.40;;
38783;SDS011;24531;45.502;12.238;2023-12-14T01:29:05;15.25;;;13.23;;
38783;SDS011;24531;45.502;12.238;2023-12-14T01:31:30;17.23;;;13.98;;
38783;SDS011;24531;45.502;12.238;2023-12-14T01:33:56;16.25;;;13.02;;
38783;SDS011;24531;45.502;12.238;2023-12-14T01:36:22;17.35;;;13.57;;
38783;SDS011;24531;45.502;12.238;2023-12-14T01:38:49;18.05;;;14.00;;
38783;SDS011;24531;45.502;12.238;2023-12-14T01:41:15;15.60;;;13.68;;
38783;SDS011;24531;45.502;12.238;2023-12-14T01:43:40;16.75;;;13.02;;
38783;SDS011;24531;45.502;12.238;2023-12-14T01:46:06;15.73;;;12.38;;
38783;SDS011;24531;45.502;12.238;2023-12-14T01:48:32;15.10;;;12.75;;
38783;SDS011;24531;45.502;12.238;2023-12-14T01:50:57;17.65;;;13.05;;
38783;SDS011;24531;45.502;12.238;2023-12-14T01:53:23;15.82;;;11.93;;
38783;SDS011;24531;45.502;12.238;2023-12-14T01:55:49;20.08;;;16.77;;
38783;SDS011;24531;45.502;12.238;2023-12-14T01:58:14;17.33;;;15.15;;
38783;SDS011;24531;45.502;12.238;2023-12-14T02:00:55;18.33;;;13.20;;
38783;SDS011;24531;45.502;12.238;2023-12-14T02:03:45;14.00;;;12.13;;
38783;SDS011;24531;45.502;12.238;2023-12-14T02:06:11;15.88;;;12.27;;
38783;SDS011;24531;45.502;12.238;2023-12-14T02:08:36;15.18;;;12.68;;
38783;SDS011;24531;45.502;12.238;2023-12-14T02:11:02;15.85;;;13.02;;
38783;SDS011;24531;45.502;12.238;2023-12-14T02:13:28;15.63;;;12.27;;
38783;SDS011;24531;45.502;12.238;2023-12-14T02:15:53;15.45;;;13.57;;
38783;SDS011;24531;45.502;12.238;2023-12-14T02:18:19;17.98;;;13.25;;
38783;SDS011;24531;45.502;12.238;2023-12-14T02:20:44;15.77;;;12.18;;
38783;SDS011;24531;45.502;12.238;2023-12-14T02:23:10;13.90;;;12.10;;
38783;SDS011;24531;45.502;12.238;2023-12-14T02:25:36;15.15;;;12.95;;
38783;SDS011;24531;45.502;12.238;2023-12-14T02:28:01;21.27;;;13.38;;
38783;SDS011;24531;45.502;12.238;2023-12-14T02:30:27;15.80;;;13.15;;
38783;SDS011;24531;45.502;12.238;2023-12-14T02:32:52;15.77;;;13.13;;
38783;SDS011;24531;45.502;12.238;2023-12-14T02:35:18;15.57;;;13.18;;
38783;SDS011;24531;45.502;12.238;2023-12-14T02:37:44;15.07;;;12.63;;
38783;SDS011;24531;45.502;12.238;2023-12-14T02:40:10;14.85;;;12.13;;
38783;SDS011;24531;45.502;12.238;2023-12-14T02:42:35;16.38;;;12.25;;
38783;SDS011;24531;45.502;12.238;2023-12-14T02:45:02;14.90;;;12.18;;
38783;SDS011;24531;45.502;12.238;2023-12-14T02:47:29;15.07;;;12.38;;
38783;SDS011;24531;45.502;12.238;2023-12-14T02:49:55;15.13;;;11.95;;
38783;SDS011;24531;45.502;12.238;2023-12-14T02:52:20;13.40;;;11.77;;
38783;SDS011;24531;45.502;12.238;2023-12-14T02:54:46;13.98;;;12.05;;
38783;SDS011;24531;45.502;12.238;2023-12-14T02:57:12;16.00;;;12.55;;
38783;SDS011;24531;45.502;12.238;2023-12-14T02:59:38;13.38;;;11.25;;
38783;SDS011;24531;45.502;12.238;2023-12-14T03:02:04;14.52;;;12.20;;
38783;SDS011;24531;45.502;12.238;2023-12-14T03:04:30;16.42;;;12.02;;
38783;SDS011;24531;45.502;12.238;2023-12-14T03:06:55;13.55;;;11.73;;
38783;SDS011;24531;45.502;12.238;2023-12-14T03:09:21;16.40;;;12.68;;
38783;SDS011;24531;45.502;12.238;2023-12-14T03:11:47;14.32;;;11.88;;
38783;SDS011;24531;45.502;12.238;2023-12-14T03:14:13;13.70;;;11.63;;
38783;SDS011;24531;45.502;12.238;2023-12-14T03:16:39;20.23;;;13.35;;
38783;SDS011;24531;45.502;12.238;2023-12-14T03:19:04;22.05;;;12.90;;
38783;SDS011;24531;45.502;12.238;2023-12-14T03:21:30;25.33;;;13.40;;
38783;SDS011;24531;45.502;12.238;2023-12-14T03:23:56;31.75;;;12.98;;
38783;SDS011;24531;45.502;12.238;2023-12-14T03:26:21;42.88;;;12.85;;
38783;SDS011;24531;45.502;12.238;2023-12-14T03:28:47;39.40;;;13.65;;
38783;SDS011;24531;45.502;12.238;2023-12-14T03:31:13;33.42;;;13.18;;
38783;SDS011;24531;45.502;12.238;2023-12-14T03:33:39;35.03;;;13.55;;
38783;SDS011;24531;45.502;12.238;2023-12-14T03:36:05;31.70;;;12.88;;
38783;SDS011;24531;45.502;12.238;2023-12-14T03:38:32;32.75;;;12.38;;
38783;SDS011;24531;45.502;12.238;2023-12-14T03:40:58;74.78;;;13.43;;
38783;SDS011;24531;45.502;12.238;2023-12-14T03:43:24;53.00;;;12.88;;
38783;SDS011;24531;45.502;12.238;2023-12-14T03:45:49;47.47;;;12.52;;
38783;SDS011;24531;45.502;12.238;2023-12-14T03:48:15;56.28;;;12.77;;
38783;SDS011;24531;45.502;12.238;2023-12-14T03:50:41;54.85;;;12.45;;
38783;SDS011;24531;45.502;12.238;2023-12-14T03:53:06;64.18;;;13.13;;
38783;SDS011;24531;45.502;12.238;2023-12-14T03:55:32;116.38;;;14.25;;
38783;SDS011;24531;45.502;12.238;2023-12-14T03:57:58;48.95;;;12.00;;
38783;SDS011;24531;45.502;12.238;2023-12-14T04:00:25;44.08;;;11.77;;
38783;SDS011;24531;45.502;12.238;2023-12-14T04:02:51;73.30;;;13.40;;
38783;SDS011;24531;45.502;12.238;2023-12-14T04:05:16;53.80;;;12.32;;
38783;SDS011;24531;45.502;12.238;2023-12-14T04:07:42;52.13;;;11.90;;
38783;SDS011;24531;45.502;12.238;2023-12-14T04:10:12;48.85;;;11.98;;
38783;SDS011;24531;45.502;12.238;2023-12-14T04:12:38;49.70;;;11.98;;
38783;SDS011;24531;45.502;12.238;2023-12-14T04:15:05;41.70;;;11.32;;
38783;SDS011;24531;45.502;12.238;2023-12-14T04:17:32;37.53;;;11.57;;
38783;SDS011;24531;45.502;12.238;2023-12-14T04:19:58;37.40;;;11.10;;
38783;SDS011;24531;45.502;12.238;2023-12-14T04:22:24;24.83;;;10.63;;
38783;SDS011;24531;45.502;12.238;2023-12-14T04:24:50;34.75;;;11.02;;
38783;SDS011;24531;45.502;12.238;2023-12-14T04:27:16;56.55;;;12.52;;
38783;SDS011;24531;45.502;12.238;2023-12-14T04:29:42;47.70;;;11.07;;
38783;SDS011;24531;45.502;12.238;2023-12-14T04:32:07;57.80;;;12.32;;
38783;SDS011;24531;45.502;12.238;2023-12-14T04:34:33;33.85;;;11.13;;
38783;SDS011;24531;45.502;12.238;2023-12-14T04:36:58;47.83;;;11.60;;
38783;SDS011;24531;45.502;12.238;2023-12-14T04:39:25;23.25;;;10.48;;
38783;SDS011;24531;45.502;12.238;2023-12-14T04:41:51;30.92;;;11.18;;
38783;SDS011;24531;45.502;12.238;2023-12-14T04:44:19;43.25;;;11.25;;
38783;SDS011;24531;45.502;12.238;2023-12-14T04:46:46;30.35;;;11.15;;
38783;SDS011;24531;45.502;12.238;2023-12-14T04:49:12;33.80;;;10.07;;
38783;SDS011;24531;45.502;12.238;2023-12-14T04:51:38;26.23;;;9.85;;
38783;SDS011;24531;45.502;12.238;2023-12-14T04:54:03;23.83;;;10.13;;
38783;SDS011;24531;45.502;12.238;2023-12-14T04:56:29;28.67;;;10.75;;
38783;SDS011;24531;45.502;12.238;2023-12-14T04:58:55;31.60;;;10.88;;
38783;SDS011;24531;45.502;12.238;2023-12-14T05:01:20;24.02;;;9.80;;
38783;SDS011;24531;45.502;12.238;2023-12-14T05:03:46;22.55;;;10.00;;
38783;SDS011;24531;45.502;12.238;2023-12-14T05:06:12;16.98;;;9.38;;
38783;SDS011;24531;45.502;12.238;2023-12-14T05:08:37;11.57;;;8.77;;
38783;SDS011;24531;45.502;12.238;2023-12-14T05:11:03;14.65;;;8.88;;
38783;SDS011;24531;45.502;12.238;2023-12-14T05:13:29;28.15;;;10.13;;
38783;SDS011;24531;45.502;12.238;2023-12-14T05:15:55;28.40;;;10.13;;
38783;SDS011;24531;45.502;12.238;2023-12-14T05:18:22;59.50;;;10.85;;
38783;SDS011;24531;45.502;12.238;2023-12-14T05:20:48;43.22;;;10.60;;
38783;SDS011;24531;45.502;12.238;2023-12-14T05:23:14;70.68;;;11.43;;
38783;SDS011;24531;45.502;12.238;2023-12-14T05:25:39;33.80;;;11.68;;
38783;SDS011;24531;45.502;12.238;2023-12-14T05:28:05;45.03;;;11.18;;
38783;SDS011;24531;45.502;12.238;2023-12-14T05:30:31;62.78;;;11.80;;
38783;SDS011;24531;45.502;12.238;2023-12-14T05:32:56;67.53;;;11.15;;
38783;SDS011;24531;45.502;12.238;2023-12-14T05:35:22;45.30;;;10.85;;
38783;SDS011;24531;45.502;12.238;2023-12-14T05:37:47;52.53;;;11.13;;
38783;SDS011;24531;45.502;12.238;2023-12-14T05:40:14;62.08;;;11.65;;
38783;SDS011;24531;45.502;12.238;2023-12-14T05:42:40;50.05;;;10.95;;
38783;SDS011;24531;45.502;12.238;2023-12-14T05:45:05;51.22;;;9.88;;
38783;SDS011;24531;45.502;12.238;2023-12-14T05:47:32;50.20;;;9.77;;
38783;SDS011;24531;45.502;12.238;2023-12-14T05:49:59;33.22;;;9.02;;
38783;SDS011;24531;45.502;12.238;2023-12-14T05:52:25;40.58;;;11.02;;
38783;SDS011;24531;45.502;12.238;2023-12-14T05:54:51;38.63;;;10.52;;
38783;SDS011;24531;45.502;12.238;2023-12-14T05:57:16;34.03;;;10.63;;
38783;SDS011;24531;45.502;12.238;2023-12-14T05:59:42;77.57;;;11.13;;
38783;SDS011;24531;45.502;12.238;2023-12-14T06:02:08;43.75;;;9.95;;
38783;SDS011;24531;45.502;12.238;2023-12-14T06:04:34;63.20;;;10.10;;
38783;SDS011;24531;45.502;12.238;2023-12-14T06:07:00;52.95;;;10.57;;
38783;SDS011;24531;45.502;12.238;2023-12-14T06:09:25;35.17;;;10.30;;
38783;SDS011;24531;45.502;12.238;2023-12-14T06:11:58;19.40;;;10.30;;
38783;SDS011;24531;45.502;12.238;2023-12-14T06:14:28;41.63;;;10.13;;
38783;SDS011;24531;45.502;12.238;2023-12-14T06:16:54;43.53;;;11.35;;
38783;SDS011;24531;45.502;12.238;2023-12-14T06:19:19;38.40;;;10.98;;
38783;SDS011;24531;45.502;12.238;2023-12-14T06:21:45;56.80;;;11.02;;
38783;SDS011;24531;45.502;12.238;2023-12-14T06:24:11;87.60;;;14.93;;
38783;SDS011;24531;45.502;12.238;2023-12-14T06:26:40;72.85;;;12.45;;
38783;SDS011;24531;45.502;12.238;2023-12-14T06:29:07;65.90;;;15.77;;
38783;SDS011;24531;45.502;12.238;2023-12-14T06:31:33;36.10;;;17.92;;
38783;SDS011;24531;45.502;12.238;2023-12-14T06:33:58;42.88;;;12.40;;
38783;SDS011;24531;45.502;12.238;2023-12-14T06:36:25;77.85;;;13.75;;
38783;SDS011;24531;45.502;12.238;2023-12-14T06:38:54;32.88;;;11.23;;
38783;SDS011;24531;45.502;12.238;2023-12-14T06:41:20;29.73;;;10.77;;
38783;SDS011;24531;45.502;12.238;2023-12-14T06:43:47;25.90;;;9.82;;
38783;SDS011;24531;45.502;12.238;2023-12-14T06:46:13;96.88;;;12.88;;
38783;SDS011;24531;45.502;12.238;2023-12-14T06:48:39;51.28;;;11.02;;
38783;SDS011;24531;45.502;12.238;2023-12-14T06:51:05;106.60;;;13.27;;
38783;SDS011;24531;45.502;12.238;2023-12-14T06:53:31;55.08;;;12.13;;
38783;SDS011;24531;45.502;12.238;2023-12-14T06:55:57;53.63;;;11.77;;
38783;SDS011;24531;45.502;12.238;2023-12-14T06:58:22;68.03;;;11.98;;
38783;SDS011;24531;45.502;12.238;2023-12-14T07:00:48;67.00;;;12.63;;
38783;SDS011;24531;45.502;12.238;2023-12-14T07:03:14;72.20;;;13.10;;
38783;SDS011;24531;45.502;12.238;2023-12-14T07:05:39;59.92;;;12.27;;
38783;SDS011;24531;45.502;12.238;2023-12-14T07:08:05;85.43;;;12.77;;
38783;SDS011;24531;45.502;12.238;2023-12-14T07:10:30;94.60;;;14.02;;
38783;SDS011;24531;45.502;12.238;2023-12-14T07:12:57;54.88;;;11.73;;
38783;SDS011;24531;45.502;12.238;2023-12-14T07:15:23;58.45;;;13.77;;
38783;SDS011;24531;45.502;12.238;2023-12-14T07:17:49;95.20;;;14.93;;
38783;SDS011;24531;45.502;12.238;2023-12-14T07:20:14;59.35;;;13.02;;
38783;SDS011;24531;45.502;12.238;2023-12-14T07:22:40;58.08;;;13.82;;
38783;SDS011;24531;45.502;12.238;2023-12-14T07:25:06;42.13;;;13.10;;
38783;SDS011;24531;45.502;12.238;2023-12-14T07:27:32;56.63;;;13.52;;
38783;SDS011;24531;45.502;12.238;2023-12-14T07:29:58;34.33;;;12.27;;
38783;SDS011;24531;45.502;12.238;2023-12-14T07:32:24;67.72;;;14.90;;
38783;SDS011;24531;45.502;12.238;2023-12-14T07:34:49;44.80;;;12.25;;
38783;SDS011;24531;45.502;12.238;2023-12-14T07:37:15;71.00;;;13.43;;
38783;SDS011;24531;45.502;12.238;2023-12-14T07:39:40;71.63;;;13.88;;
38783;SDS011;24531;45.502;12.238;2023-12-14T07:42:06;52.60;;;11.77;;
38783;SDS011;24531;45.502;12.238;2023-12-14T07:44:32;58.15;;;12.18;;
38783;SDS011;24531;45.502;12.238;2023-12-14T07:46:59;52.50;;;11.45;;
38783;SDS011;24531;45.502;12.238;2023-12-14T07:49:25;37.20;;;13.20;;
38783;SDS011;24531;45.502;12.238;2023-12-14T07:51:51;64.15;;;11.95;;
38783;SDS011;24531;45.502;12.238;2023-12-14T07:54:17;51.67;;;12.88;;
38783;SDS011;24531;45.502;12.238;2023-12-14T07:56:43;26.55;;;10.63;;
38783;SDS011;24531;45.502;12.238;2023-12-14T07:59:09;71.53;;;12.63;;
38783;SDS011;24531;45.502;12.238;2023-12-14T08:01:35;46.45;;;12.13;;
38783;SDS011;24531;45.502;12.238;2023-12-14T08:04:01;36.88;;;12.85;;
38783;SDS011;24531;45.502;12.238;2023-12-14T08:06:27;58.40;;;14.18;;
38783;SDS011;24531;45.502;12.238;2023-12-14T08:08:52;30.40;;;10.85;;
38783;SDS011;24531;45.502;12.238;2023-12-14T08:11:18;27.95;;;11.30;;
38783;SDS011;24531;45.502;12.238;2023-12-14T08:13:44;31.88;;;12.27;;
38783;SDS011;24531;45.502;12.238;2023-12-14T08:16:09;38.42;;;12.00;;
38783;SDS011;24531;45.502;12.238;2023-12-14T08:18:36;27.20;;;11.55;;
38783;SDS011;24531;45.502;12.238;2023-12-14T08:21:02;32.20;;;11.60;;
38783;SDS011;24531;45.502;12.238;2023-12-14T08:23:28;35.17;;;12.07;;
38783;SDS011;24531;45.502;12.238;2023-12-14T08:25:55;43.50;;;12.02;;
38783;SDS011;24531;45.502;12.238;2023-12-14T08:28:25;20.30;;;11.48;;
38783;SDS011;24531;45.502;12.238;2023-12-14T08:30:51;27.00;;;12.90;;
38783;SDS011;24531;45.502;12.238;2023-12-14T08:33:17;28.08;;;12.30;;
38783;SDS011;24531;45.502;12.238;2023-12-14T08:35:42;21.45;;;12.75;;
38783;SDS011;24531;45.502;12.238;2023-12-14T08:38:09;18.98;;;11.68;;
38783;SDS011;24531;45.502;12.238;2023-12-14T08:40:36;26.20;;;11.90;;
38783;SDS011;24531;45.502;12.238;2023-12-14T08:43:01;23.35;;;12.35;;
38783;SDS011;24531;45.502;12.238;2023-12-14T08:45:28;24.83;;;12.13;;
38783;SDS011;24531;45.502;12.238;2023-12-14T08:47:54;21.77;;;11.38;;
38783;SDS011;24531;45.502;12.238;2023-12-14T08:50:19;29.95;;;12.00;;
38783;SDS011;24531;45.502;12.238;2023-12-14T08:52:45;26.20;;;12.57;;
38783;SDS011;24531;45.502;12.238;2023-12-14T08:55:12;19.42;;;12.90;;
38783;SDS011;24531;45.502;12.238;2023-12-14T08:57:38;21.52;;;11.95;;
38783;SDS011;24531;45.502;12.238;2023-12-14T09:00:04;18.52;;;11.90;;
38783;SDS011;24531;45.502;12.238;2023-12-14T09:02:31;21.25;;;11.75;;
38783;SDS011;24531;45.502;12.238;2023-12-14T09:04:57;15.75;;;12.07;;
38783;SDS011;24531;45.502;12.238;2023-12-14T09:07:22;16.58;;;12.60;;
38783;SDS011;24531;45.502;12.238;2023-12-14T09:09:48;16.92;;;13.15;;
38783;SDS011;24531;45.502;12.238;2023-12-14T09:12:14;14.65;;;11.73;;
38783;SDS011;24531;45.502;12.238;2023-12-14T09:14:39;18.08;;;12.95;;
38783;SDS011;24531;45.502;12.238;2023-12-14T09:17:05;17.80;;;13.38;;
38783;SDS011;24531;45.502;12.238;2023-12-14T09:19:30;17.98;;;13.18;;
38783;SDS011;24531;45.502;12.238;2023-12-14T09:21:56;17.13;;;13.05;;
38783;SDS011;24531;45.502;12.238;2023-12-14T09:24:23;15.30;;;12.93;;
38783;SDS011;24531;45.502;12.238;2023-12-14T09:26:48;16.88;;;13.77;;
38783;SDS011;24531;45.502;12.238;2023-12-14T09:29:14;16.10;;;12.93;;
38783;SDS011;24531;45.502;12.238;2023-12-14T09:31:43;16.48;;;13.32;;
38783;SDS011;24531;45.502;12.238;2023-12-14T09:34:10;18.10;;;13.95;;
38783;SDS011;24531;45.502;12.238;2023-12-14T09:36:36;20.48;;;14.07;;
38783;SDS011;24531;45.502;12.238;2023-12-14T09:39:04;17.15;;;12.15;;
38783;SDS011;24531;45.502;12.238;2023-12-14T09:41:35;14.80;;;12.43;;
38783;SDS011;24531;45.502;12.238;2023-12-14T09:44:02;14.93;;;11.27;;
38783;SDS011;24531;45.502;12.238;2023-12-14T09:46:28;13.90;;;12.20;;
38783;SDS011;24531;45.502;12.238;2023-12-14T09:48:55;16.52;;;12.32;;
38783;SDS011;24531;45.502;12.238;2023-12-14T09:51:24;14.35;;;11.10;;
38783;SDS011;24531;45.502;12.238;2023-12-14T09:53:52;16.60;;;11.80;;
38783;SDS011;24531;45.502;12.238;2023-12-14T09:56:23;14.80;;;11.35;;
38783;SDS011;24531;45.502;12.238;2023-12-14T09:58:52;12.98;;;10.85;;
38783;SDS011;24531;45.502;12.238;2023-12-14T10:01:22;12.15;;;10.32;;
38783;SDS011;24531;45.502;12.238;2023-12-14T10:03:48;14.77;;;10.73;;
38783;SDS011;24531;45.502;12.238;2023-12-14T10:06:13;12.57;;;10.63;;
38783;SDS011;24531;45.502;12.238;2023-12-14T10:08:39;12.20;;;10.20;;
38783;SDS011;24531;45.502;12.238;2023-12-14T10:11:05;12.25;;;10.27;;
38783;SDS011;24531;45.502;12.238;2023-12-14T10:13:41;15.65;;;10.10;;
38783;SDS011;24531;45.502;12.238;2023-12-14T10:16:07;14.13;;;9.57;;
38783;SDS011;24531;45.502;12.238;2023-12-14T10:18:34;11.45;;;9.27;;
38783;SDS011;24531;45.502;12.238;2023-12-14T10:20:59;11.70;;;9.95;;
38783;SDS011;24531;45.502;12.238;2023-12-14T10:23:26;12.32;;;9.55;;
38783;SDS011;24531;45.502;12.238;2023-12-14T10:25:53;10.60;;;8.98;;
38783;SDS011;24531;45.502;12.238;2023-12-14T10:28:18;12.35;;;9.88;;
38783;SDS011;24531;45.502;12.238;2023-12-14T10:30:44;9.98;;;8.95;;
38783;SDS011;24531;45.502;12.238;2023-12-14T10:33:10;12.48;;;9.60;;
38783;SDS011;24531;45.502;12.238;2023-12-14T10:35:35;14.10;;;9.68;;
38783;SDS011;24531;45.502;12.238;2023-12-14T10:38:02;12.15;;;9.82;;
38783;SDS011;24531;45.502;12.238;2023-12-14T10:40:30;13.13;;;9.60;;
38783;SDS011;24531;45.502;12.238;2023-12-14T10:42:58;11.77;;;10.15;;
38783;SDS011;24531;45.502;12.238;2023-12-14T10:45:26;12.20;;;9.65;;
38783;SDS011;24531;45.502;12.238;2023-12-14T10:47:54;13.65;;;10.15;;
38783;SDS011;24531;45.502;12.238;2023-12-14T10:50:21;12.60;;;10.35;;
38783;SDS011;24531;45.502;12.238;2023-12-14T10:52:47;12.65;;;11.10;;
38783;SDS011;24531;45.502;12.238;2023-12-14T10:55:46;13.63;;;11.05;;
38783;SDS011;24531;45.502;12.238;2023-12-14T10:58:09;14.13;;;11.32;;
38783;SDS011;24531;45.502;12.238;2023-12-14T11:00:35;13.02;;;9.50;;
38783;SDS011;24531;45.502;12.238;2023-12-14T11:03:03;12.57;;;10.23;;
38783;SDS011;24531;45.502;12.238;2023-12-14T11:05:30;13.40;;;10.90;;
38783;SDS011;24531;45.502;12.238;2023-12-14T11:08:03;11.18;;;8.68;;
38783;SDS011;24531;45.502;12.238;2023-12-14T11:10:52;10.48;;;9.35;;
38783;SDS011;24531;45.502;12.238;2023-12-14T11:13:21;14.05;;;9.90;;
38783;SDS011;24531;45.502;12.238;2023-12-14T11:15:48;10.95;;;9.27;;
38783;SDS011;24531;45.502;12.238;2023-12-14T11:18:19;10.60;;;8.63;;
38783;SDS011;24531;45.502;12.238;2023-12-14T11:23:53;10.68;;;8.80;;
38783;SDS011;24531;45.502;12.238;2023-12-14T11:26:08;11.23;;;8.57;;
38783;SDS011;24531;45.502;12.238;2023-12-14T11:28:35;11.30;;;8.18;;
38783;SDS011;24531;45.502;12.238;2023-12-14T11:31:02;11.27;;;9.35;;
38783;SDS011;24531;45.502;12.238;2023-12-14T11:33:34;11.82;;;10.25;;
38783;SDS011;24531;45.502;12.238;2023-12-14T11:36:01;13.27;;;9.68;;
38783;SDS011;24531;45.502;12.238;2023-12-14T11:38:28;10.55;;;8.88;;
38783;SDS011;24531;45.502;12.238;2023-12-14T11:40:55;12.98;;;9.52;;
38783;SDS011;24531;45.502;12.238;2023-12-14T11:43:21;11.25;;;9.65;;
38783;SDS011;24531;45.502;12.238;2023-12-14T11:45:48;13.30;;;10.60;;
38783;SDS011;24531;45.502;12.238;2023-12-14T11:48:14;13.13;;;10.35;;
38783;SDS011;24531;45.502;12.238;2023-12-14T11:50:40;11.25;;;9.38;;
38783;SDS011;24531;45.502;12.238;2023-12-14T11:53:08;12.50;;;10.18;;
38783;SDS011;24531;45.502;12.238;2023-12-14T11:55:34;12.07;;;9.50;;
38783;SDS011;24531;45.502;12.238;2023-12-14T11:58:02;12.82;;;9.48;;
38783;SDS011;24531;45.502;12.238;2023-12-14T12:00:29;12.50;;;9.45;;
38783;SDS011;24531;45.502;12.238;2023-12-14T12:05:37;9.93;;;8.57;;
38783;SDS011;24531;45.502;12.238;2023-12-14T12:08:05;11.75;;;8.60;;
38783;SDS011;24531;45.502;12.238;2023-12-14T12:10:32;10.30;;;9.02;;
38783;SDS011;24531;45.502;12.238;2023-12-14T12:13:02;9.75;;;8.27;;
38783;SDS011;24531;45.502;12.238;2023-12-14T12:15:30;9.55;;;7.63;;
38783;SDS011;24531;45.502;12.238;2023-12-14T12:18:02;10.75;;;8.23;;
38783;SDS011;24531;45.502;12.238;2023-12-14T12:20:29;11.13;;;8.60;;
38783;SDS011;24531;45.502;12.238;2023-12-14T12:22:54;9.73;;;8.05;;
38783;SDS011;24531;45.502;12.238;2023-12-14T12:25:20;12.05;;;9.40;;
38783;SDS011;24531;45.502;12.238;2023-12-14T12:27:47;10.85;;;8.48;;
38783;SDS011;24531;45.502;12.238;2023-12-14T12:30:13;10.35;;;8.63;;
38783;SDS011;24531;45.502;12.238;2023-12-14T12:32:40;11.63;;;8.10;;
38783;SDS011;24531;45.502;12.238;2023-12-14T12:35:06;11.10;;;8.73;;
38783;SDS011;24531;45.502;12.238;2023-12-14T12:37:33;11.60;;;9.63;;
38783;SDS011;24531;45.502;12.238;2023-12-14T12:39:59;10.07;;;8.45;;
38783;SDS011;24531;45.502;12.238;2023-12-14T12:42:24;13.48;;;9.25;;
38783;SDS011;24531;45.502;12.238;2023-12-14T12:44:50;10.63;;;8.25;;
38783;SDS011;24531;45.502;12.238;2023-12-14T12:47:16;12.27;;;9.82;;
38783;SDS011;24531;45.502;12.238;2023-12-14T12:49:42;10.40;;;8.70;;
38783;SDS011;24531;45.502;12.238;2023-12-14T12:52:08;12.77;;;9.90;;
38783;SDS011;24531;45.502;12.238;2023-12-14T12:54:34;12.68;;;9.77;;
38783;SDS011;24531;45.502;12.238;2023-12-14T12:57:00;12.88;;;9.95;;
38783;SDS011;24531;45.502;12.238;2023-12-14T12:59:26;11.48;;;9.48;;
38783;SDS011;24531;45.502;12.238;2023-12-14T13:01:51;12.88;;;9.80;;
38783;SDS011;24531;45.502;12.238;2023-12-14T13:04:18;11.90;;;8.68;;
38783;SDS011;24531;45.502;12.238;2023-12-14T13:06:48;12.48;;;9.90;;
38783;SDS011;24531;45.502;12.238;2023-12-14T13:09:14;10.95;;;8.95;;
38783;SDS011;24531;45.502;12.238;2023-12-14T13:11:41;14.40;;;10.52;;
38783;SDS011;24531;45.502;12.238;2023-12-14T13:14:07;11.88;;;9.63;;
38783;SDS011;24531;45.502;12.238;2023-12-14T13:16:34;15.40;;;10.32;;
38783;SDS011;24531;45.502;12.238;2023-12-14T13:19:00;13.52;;;9.68;;
38783;SDS011;24531;45.502;12.238;2023-12-14T13:21:26;14.93;;;9.98;;
38783;SDS011;24531;45.502;12.238;2023-12-14T13:23:52;11.85;;;9.15;;
38783;SDS011;24531;45.502;12.238;2023-12-14T13:26:18;11.88;;;9.45;;
38783;SDS011;24531;45.502;12.238;2023-12-14T13:28:44;14.10;;;10.38;;
38783;SDS011;24531;45.502;12.238;2023-12-14T13:31:10;13.55;;;10.68;;
38783;SDS011;24531;45.502;12.238;2023-12-14T13:33:35;15.75;;;10.77;;
38783;SDS011;24531;45.502;12.238;2023-12-14T13:36:01;10.60;;;8.75;;
38783;SDS011;24531;45.502;12.238;2023-12-14T13:38:27;11.65;;;9.05;;
38783;SDS011;24531;45.502;12.238;2023-12-14T13:40:52;9.98;;;8.48;;
38783;SDS011;24531;45.502;12.238;2023-12-14T13:43:18;12.63;;;8.82;;
38783;SDS011;24531;45.502;12.238;2023-12-14T13:45:44;13.52;;;7.95;;
38783;SDS011;24531;45.502;12.238;2023-12-14T13:48:09;11.52;;;8.30;;
38783;SDS011;24531;45.502;12.238;2023-12-14T13:50:36;11.32;;;9.15;;
38783;SDS011;24531;45.502;12.238;2023-12-14T13:53:01;11.82;;;8.43;;
38783;SDS011;24531;45.502;12.238;2023-12-14T13:55:27;9.90;;;7.85;;
38783;SDS011;24531;45.502;12.238;2023-12-14T13:57:53;9.93;;;6.95;;
38783;SDS011;24531;45.502;12.238;2023-12-14T14:00:22;8.57;;;6.43;;
38783;SDS011;24531;45.502;12.238;2023-12-14T14:02:49;9.50;;;7.57;;
38783;SDS011;24531;45.502;12.238;2023-12-14T14:05:15;9.25;;;7.03;;
38783;SDS011;24531;45.502;12.238;2023-12-14T14:07:40;12.80;;;8.23;;
38783;SDS011;24531;45.502;12.238;2023-12-14T14:10:06;11.07;;;9.05;;
38783;SDS011;24531;45.502;12.238;2023-12-14T14:12:32;12.15;;;8.68;;
38783;SDS011;24531;45.502;12.238;2023-12-14T14:14:58;16.83;;;8.90;;